Forest Lake, South Carolina
Current Conditions -  °F | °C
As of 12:53 PM on Saturday 22 Nov 2014 (Local Time) from KCUB Reporting Station
Clear Clear  
Wind Chill: 59°   Ceiling: Unl
Heat Index: 59°   Visibility: 10mi
Dew Point: 21°   Wind: 5mph
Humidity: 23%   Direction: NA
Pressure: 30.45"   Gusts: NA
Location:  34.025°N, 80.9562°W
Report Text: KCUB 221753Z AUTO VRB04KT 10SM CLR 15/M06 A3045 RMK AO2 SLP310 T01501061 10150 21011 58036
Loading
Personal Weather Stations






























Interactive Weather Map New forecast layout! Learn more

10-Day Weather Forecast

Advertisements
Track Severe Weather on mobile